Time;durP1;ratioP1;P1;durP2;ratioP2;P2;SDS_P1;SDS_P2;PMS_P1;PMS_P2;Temp;Humidity;BMP_temperature;BMP_pressure;BME280_temperature;BME280_humidity;BME280_pressure;Samples;Min_cycle;Max_cycle;Signal;HPM_P1;HPM_P2
2021/04/20 00:00:39;;;;;;;18.05;12.18;;;;;;;7.05;81.36;99038.52;1743344;81;21370;-69
2021/04/20 00:03:07;;;;;;;17.73;12.60;;;;;;;6.97;81.75;99034.43;1743007;81;21628;-68
2021/04/20 00:05:36;;;;;;;18.20;13.25;;;;;;;6.89;82.19;99030.38;1739853;81;21554;-69
2021/04/20 00:08:05;;;;;;;19.98;13.55;;;;;;;6.82;82.57;99032.72;1737043;81;21672;-69
2021/04/20 00:10:33;;;;;;;17.65;13.60;;;;;;;6.73;83.04;99032.24;1740786;81;21170;-68
2021/04/20 00:13:02;;;;;;;17.70;13.58;;;;;;;6.66;83.59;99032.45;1737735;81;21155;-69
2021/04/20 00:15:32;;;;;;;15.95;11.90;;;;;;;6.60;83.92;99029.89;1712632;82;21212;-69
2021/04/20 00:18:03;;;;;;;20.02;12.20;;;;;;;6.57;84.49;99027.06;1745839;81;21774;-69
2021/04/20 00:20:31;;;;;;;18.52;12.82;;;;;;;6.54;85.24;99020.77;1699766;81;21157;-68
2021/04/20 00:23:00;;;;;;;18.50;12.58;;;;;;;6.50;85.92;99022.50;1738934;81;21191;-68
2021/04/20 00:25:28;;;;;;;19.82;13.15;;;;;;;6.44;86.25;99012.56;1743478;81;21581;-68
2021/04/20 00:27:56;;;;;;;17.92;13.62;;;;;;;6.40;86.76;99013.31;1745740;82;21322;-68
2021/04/20 00:30:24;;;;;;;20.02;13.83;;;;;;;6.34;87.14;99009.91;1740742;81;21160;-69
2021/04/20 00:32:52;;;;;;;20.23;12.98;;;;;;;6.29;87.50;99006.88;1739802;81;21157;-68
2021/04/20 00:35:21;;;;;;;16.35;12.07;;;;;;;6.23;87.83;99005.63;1742348;81;21176;-69
2021/04/20 00:37:49;;;;;;;17.15;12.37;;;;;;;6.21;88.10;98997.06;1716793;82;21183;-68
2021/04/20 00:40:18;;;;;;;15.75;12.93;;;;;;;6.16;88.63;98992.21;1715535;81;21141;-69
2021/04/20 00:42:56;;;;;;;18.52;12.75;;;;;;;6.10;89.37;98991.45;1737438;82;21195;-68
2021/04/20 00:45:26;;;;;;;17.17;13.05;;;;;;;6.05;89.75;98984.95;1741593;81;21149;-69
2021/04/20 00:47:54;;;;;;;18.90;13.88;;;;;;;5.99;90.36;98985.02;1739217;81;21615;-69
2021/04/20 00:50:31;;;;;;;18.05;13.70;;;;;;;5.94;90.50;98976.67;1739783;81;21305;-68
2021/04/20 00:52:59;;;;;;;19.10;13.25;;;;;;;5.89;90.98;98979.72;1748369;82;21144;-69
2021/04/20 00:55:30;;;;;;;17.95;12.73;;;;;;;5.86;91.00;98979.98;1744439;81;21150;-69
2021/04/20 00:57:59;;;;;;;18.52;13.25;;;;;;;5.84;91.14;98980.11;1742775;81;21306;-69
2021/04/20 01:00:31;;;;;;;17.02;12.75;;;;;;;5.83;91.53;98976.30;1746914;82;21164;-68
2021/04/20 01:02:58;;;;;;;17.30;13.68;;;;;;;5.79;92.01;98978.86;1746602;82;21605;-69
2021/04/20 01:05:34;;;;;;;21.05;14.25;;;;;;;5.74;92.37;98967.92;1740791;81;21204;-69
2021/04/20 01:08:10;;;;;;;17.82;13.70;;;;;;;5.68;92.79;98966.67;1711088;82;21302;-69
2021/04/20 01:10:43;;;;;;;18.57;14.10;;;;;;;5.63;93.40;98963.64;1743501;82;21219;-69
2021/04/20 01:13:11;;;;;;;18.52;13.58;;;;;;;5.57;93.46;98959.77;1743785;81;21163;-69
2021/04/20 01:15:47;;;;;;;17.45;11.83;;;;;;;5.56;93.43;98961.20;1736859;81;21173;-69
2021/04/20 01:18:19;;;;;;;17.75;12.47;;;;;;;5.55;93.67;98954.28;1717161;82;21153;-69
2021/04/20 01:20:51;;;;;;;16.55;12.10;;;;;;;5.54;93.99;98951.33;1710022;82;21164;-68
2021/04/20 01:23:27;;;;;;;16.97;12.53;;;;;;;5.51;94.40;98951.58;1741329;81;21193;-68
2021/04/20 01:25:56;;;;;;;17.42;12.88;;;;;;;5.48;94.77;98944.83;1743892;81;21569;-69
2021/04/20 01:28:24;;;;;;;18.55;12.98;;;;;;;5.47;94.98;98943.15;1744976;81;21165;-69
2021/04/20 01:30:53;;;;;;;16.87;12.43;;;;;;;5.46;95.28;98936.23;1737834;81;21308;-69
2021/04/20 01:33:22;;;;;;;15.50;11.57;;;;;;;5.48;95.28;98932.17;1741845;81;21187;-69
2021/04/20 01:35:51;;;;;;;14.60;11.15;;;;;;;5.52;95.19;98927.85;1737725;81;21170;-69
2021/04/20 01:38:19;;;;;;;15.18;11.50;;;;;;;5.53;95.37;98930.80;1711119;81;21302;-68
2021/04/20 01:40:47;;;;;;;14.80;11.28;;;;;;;5.55;95.56;98918.87;1746941;82;21303;-69
2021/04/20 01:43:15;;;;;;;15.75;11.83;;;;;;;5.56;95.46;98923.98;1741815;81;21352;-69
2021/04/20 01:45:44;;;;;;;14.80;11.48;;;;;;;5.57;95.47;98916.48;1709619;82;21735;-69
2021/04/20 01:48:14;;;;;;;16.52;11.50;;;;;;;5.56;95.45;98920.05;1746924;81;21176;-69
2021/04/20 01:50:42;;;;;;;15.18;11.38;;;;;;;5.57;95.34;98919.11;1746454;81;21589;-69
2021/04/20 01:53:10;;;;;;;12.98;10.00;;;;;;;5.58;95.19;98919.44;1736232;82;21301;-69
2021/04/20 01:55:39;;;;;;;12.47;9.90;;;;;;;5.63;94.98;98919.05;1720001;81;21194;-69
2021/04/20 01:58:07;;;;;;;14.73;10.55;;;;;;;5.65;94.94;98915.80;1743760;81;21181;-69
2021/04/20 02:00:36;;;;;;;13.65;10.40;;;;;;;5.66;94.98;98912.69;1747008;82;21306;-69
2021/04/20 02:03:07;;;;;;;12.98;10.20;;;;;;;5.66;94.75;98907.45;1745356;81;21180;-70
2021/04/20 02:05:38;;;;;;;13.43;10.63;;;;;;;5.66;94.51;98914.00;1709675;82;21583;-70
2021/04/20 02:08:06;;;;;;;13.03;10.50;;;;;;;5.63;94.38;98911.17;1741364;82;21160;-69
2021/04/20 02:10:34;;;;;;;13.80;10.25;;;;;;;5.61;94.27;98907.38;1739544;81;21571;-70
2021/04/20 02:13:03;;;;;;;12.18;9.38;;;;;;;5.61;94.01;98906.06;1739256;81;21166;-68
2021/04/20 02:15:31;;;;;;;12.40;9.40;;;;;;;5.64;94.13;98913.64;1736172;81;21159;-69
2021/04/20 02:17:59;;;;;;;13.10;9.85;;;;;;;5.66;94.41;98907.45;1745177;81;21199;-69
2021/04/20 02:20:29;;;;;;;12.70;9.65;;;;;;;5.65;94.19;98900.06;1742785;81;21210;-69
2021/04/20 02:22:57;;;;;;;12.18;9.78;;;;;;;5.64;94.11;98903.64;1746248;81;21303;-69
2021/04/20 02:25:25;;;;;;;12.50;9.83;;;;;;;5.61;94.12;98896.87;1748412;82;21620;-69
2021/04/20 02:27:55;;;;;;;13.10;10.15;;;;;;;5.59;94.09;98894.88;1723001;82;21172;-68
2021/04/20 02:30:24;;;;;;;11.80;9.35;;;;;;;5.58;94.23;98895.83;1745161;81;21163;-68
2021/04/20 02:32:51;;;;;;;11.60;8.65;;;;;;;5.57;94.06;98895.50;1746292;82;21149;-69
2021/04/20 02:35:20;;;;;;;11.43;9.33;;;;;;;5.60;93.93;98893.08;1744102;81;21581;-68
2021/04/20 02:37:49;;;;;;;12.37;9.88;;;;;;;5.59;94.07;98889.63;1741330;82;21141;-69
2021/04/20 02:40:25;;;;;;;13.55;9.40;;;;;;;5.56;94.40;98889.89;1739764;81;21200;-69
2021/04/20 02:42:53;;;;;;;13.00;10.15;;;;;;;5.56;94.44;98892.52;1741032;81;21188;-69
2021/04/20 02:45:24;;;;;;;15.95;10.58;;;;;;;5.54;94.32;98888.38;1747009;82;21183;-68
2021/04/20 02:47:55;;;;;;;13.15;9.95;;;;;;;5.50;94.45;98887.81;1746893;82;21185;-69
2021/04/20 02:50:28;;;;;;;12.53;9.90;;;;;;;5.45;94.58;98881.65;1743195;81;21147;-68
2021/04/20 02:52:57;;;;;;;16.52;9.40;;;;;;;5.43;94.71;98886.20;1736375;81;21195;-69
2021/04/20 02:55:27;;;;;;;12.95;10.05;;;;;;;5.45;94.77;98886.89;1738664;81;21137;-69
2021/04/20 02:57:58;;;;;;;13.18;10.53;;;;;;;5.48;95.33;98884.97;1743112;81;21203;-68
2021/04/20 03:00:26;;;;;;;15.10;10.08;;;;;;;5.47;95.29;98890.70;1707771;82;21173;-69
2021/04/20 03:02:57;;;;;;;13.50;10.85;;;;;;;5.44;95.29;98889.19;1711332;81;21599;-68
2021/04/20 03:05:28;;;;;;;13.13;11.00;;;;;;;5.42;95.41;98883.71;1742014;81;21170;-69
2021/04/20 03:07:57;;;;;;;15.93;11.33;;;;;;;5.40;95.65;98886.95;1747244;82;21593;-69
2021/04/20 03:10:26;;;;;;;13.53;10.43;;;;;;;5.42;95.79;98885.02;1707094;82;21614;-69
2021/04/20 03:12:54;;;;;;;13.58;10.28;;;;;;;5.49;95.89;98882.70;1709397;81;21131;-69
2021/04/20 03:15:22;;;;;;;14.10;10.80;;;;;;;5.54;96.09;98883.14;1675011;82;21593;-69
2021/04/20 03:17:52;;;;;;;16.15;11.65;;;;;;;5.59;96.19;98887.47;1723175;82;21157;-68
2021/04/20 03:20:20;;;;;;;15.38;11.53;;;;;;;5.63;95.96;98884.45;1712566;81;21168;-69
2021/04/20 03:22:49;;;;;;;14.53;11.50;;;;;;;5.67;95.71;98885.48;1709669;82;21136;-69
2021/04/20 03:25:27;;;;;;;14.93;11.03;;;;;;;5.69;95.52;98881.77;1709405;82;21148;-69
2021/04/20 03:27:57;;;;;;;13.18;10.48;;;;;;;5.75;95.53;98885.64;1741039;81;21587;-69
2021/04/20 03:30:32;;;;;;;14.28;10.55;;;;;;;5.82;95.19;98886.76;1737034;81;21623;-68
2021/04/20 03:33:21;;;;;;;16.52;11.85;;;;;;;5.89;95.19;98888.33;1741339;81;21600;-68
2021/04/20 03:36:00;;;;;;;13.65;11.45;;;;;;;5.93;95.18;98889.25;1709098;82;21309;-68
2021/04/20 03:38:51;;;;;;;15.38;10.93;;;;;;;5.99;94.90;98886.09;1717443;82;21595;-68
2021/04/20 03:41:51;;;;;;;14.30;11.57;;;;;;;6.02;94.68;98877.11;1737021;81;21167;-68
2021/04/20 03:44:43;;;;;;;14.05;11.05;;;;;;;6.07;94.22;98883.27;1687259;82;21630;-68
2021/04/20 03:47:34;;;;;;;13.35;10.78;;;;;;;6.16;93.98;98882.44;1745528;81;21141;-68
2021/04/20 03:50:04;;;;;;;14.03;10.78;;;;;;;6.29;93.45;98884.28;1743508;81;21558;-69
2021/04/20 03:52:35;;;;;;;12.63;10.75;;;;;;;6.38;93.29;98884.76;1740185;81;21587;-69
2021/04/20 03:55:11;;;;;;;11.57;10.38;;;;;;;6.48;92.80;98886.55;1746922;82;21216;-70
2021/04/20 03:57:41;;;;;;;13.38;10.90;;;;;;;6.55;92.15;98883.70;1714892;82;21588;-70
2021/04/20 04:00:10;;;;;;;16.12;10.78;;;;;;;6.61;91.54;98875.24;1745642;81;21180;-70
2021/04/20 04:02:39;;;;;;;12.90;10.55;;;;;;;6.67;91.18;98872.03;1712047;82;21173;-69
2021/04/20 04:05:09;;;;;;;13.00;10.32;;;;;;;6.74;90.84;98874.44;1741876;81;21143;-69
2021/04/20 04:07:39;;;;;;;12.23;9.80;;;;;;;6.88;90.29;98869.19;1741916;81;21171;-69
2021/04/20 04:10:08;;;;;;;12.68;9.95;;;;;;;7.07;89.68;98863.52;1700794;82;21163;-69
2021/04/20 04:12:39;;;;;;;14.78;10.70;;;;;;;7.24;89.11;98859.28;1747853;82;21176;-70
2021/04/20 04:15:10;;;;;;;11.55;9.85;;;;;;;7.41;88.42;98857.66;1741807;81;21604;-69
2021/04/20 04:17:42;;;;;;;15.60;10.60;;;;;;;7.56;88.05;98858.34;1744986;81;21220;-69
2021/04/20 04:20:12;;;;;;;13.75;10.60;;;;;;;7.70;87.21;98858.30;1740253;81;21571;-70
2021/04/20 04:22:59;;;;;;;13.90;10.20;;;;;;;7.85;86.02;98857.28;1737741;81;21174;-69
2021/04/20 04:25:33;;;;;;;11.35;9.50;;;;;;;8.01;85.12;98857.11;1719903;82;21581;-69
2021/04/20 04:28:02;;;;;;;11.18;8.98;;;;;;;8.16;84.71;98858.22;1740453;81;21163;-69
2021/04/20 04:30:30;;;;;;;13.10;9.23;;;;;;;8.34;83.70;98854.22;1739276;81;21686;-69
2021/04/20 04:32:58;;;;;;;12.75;9.05;;;;;;;8.58;82.33;98852.77;1745366;81;21636;-69
2021/04/20 04:35:26;;;;;;;12.10;8.85;;;;;;;8.82;80.79;98854.23;1738086;81;21555;-70
2021/04/20 04:37:54;;;;;;;13.60;9.73;;;;;;;9.07;78.96;98853.86;1738081;81;21155;-68
2021/04/20 04:40:22;;;;;;;11.18;9.53;;;;;;;9.29;77.06;98843.70;1746626;81;21189;-69
2021/04/20 04:42:51;;;;;;;15.75;9.78;;;;;;;9.49;75.53;98839.80;1719845;82;21180;-69
2021/04/20 04:45:19;;;;;;;11.12;9.25;;;;;;;9.61;74.72;98848.23;1737011;81;21158;-69
2021/04/20 04:47:47;;;;;;;15.20;9.50;;;;;;;9.71;73.89;98845.47;1719279;81;21581;-70
2021/04/20 04:50:15;;;;;;;11.70;9.78;;;;;;;9.76;72.24;98839.18;1737524;81;21164;-69
2021/04/20 04:52:44;;;;;;;10.50;9.40;;;;;;;9.75;71.79;98839.38;1691000;82;21184;-69
2021/04/20 04:55:13;;;;;;;10.93;9.78;;;;;;;9.73;71.25;98841.35;1698207;81;21557;-70
2021/04/20 04:57:43;;;;;;;12.15;9.83;;;;;;;9.67;71.28;98837.05;1713358;81;21315;-69
2021/04/20 05:00:12;;;;;;;13.62;8.95;;;;;;;9.66;70.91;98836.70;1745254;81;21625;-70
2021/04/20 05:02:40;;;;;;;11.68;10.03;;;;;;;9.68;70.78;98832.58;1722775;82;21255;-69
2021/04/20 05:05:13;;;;;;;11.93;10.13;;;;;;;9.73;70.88;98845.31;1713944;82;21255;-69
2021/04/20 05:07:44;;;;;;;17.52;10.50;;;;;;;9.76;70.77;98843.14;1747710;82;21188;-69
2021/04/20 05:10:14;;;;;;;16.75;11.45;;;;;;;9.87;70.54;98837.54;1739553;81;21165;-70
2021/04/20 05:12:42;;;;;;;18.42;13.30;;;;;;;10.03;70.42;98835.92;1747347;81;21133;-70
2021/04/20 05:15:13;;;;;;;19.40;13.15;;;;;;;10.16;70.21;98839.39;1739827;81;21579;-71
2021/04/20 05:17:41;;;;;;;18.12;12.63;;;;;;;10.31;69.64;98836.94;1746996;82;21172;-68
2021/04/20 05:20:18;;;;;;;17.35;11.60;;;;;;;10.46;68.96;98841.36;1746043;82;21184;-69
2021/04/20 05:22:49;;;;;;;15.05;10.70;;;;;;;10.64;68.09;98842.50;1741174;81;21167;-70
2021/04/20 05:25:19;;;;;;;11.53;10.18;;;;;;;10.82;67.23;98837.48;1720620;82;21172;-70
2021/04/20 05:27:50;;;;;;;11.55;10.13;;;;;;;11.01;66.55;98840.22;1747269;81;21314;-69
2021/04/20 05:30:20;;;;;;;10.88;9.70;;;;;;;11.24;65.62;98827.89;1710467;82;21161;-69
2021/04/20 05:32:54;;;;;;;12.90;10.32;;;;;;;11.43;64.77;98830.59;1742625;81;21552;-70
2021/04/20 05:35:22;;;;;;;11.97;9.85;;;;;;;11.56;63.98;98830.03;1683489;82;21294;-70
2021/04/20 05:37:50;;;;;;;12.13;9.85;;;;;;;11.67;63.21;98827.48;1714408;82;21309;-70
2021/04/20 05:40:23;;;;;;;14.30;10.10;;;;;;;11.79;62.78;98831.36;1745383;81;21160;-68
2021/04/20 05:42:53;;;;;;;13.88;9.63;;;;;;;12.00;62.11;98827.27;1748064;81;21307;-68
2021/04/20 05:45:22;;;;;;;17.23;9.48;;;;;;;12.50;61.04;98825.82;1746490;82;21561;-69
2021/04/20 05:47:52;;;;;;;10.15;8.68;;;;;;;13.19;58.87;98824.71;1744447;81;21318;-70
2021/04/20 05:50:23;;;;;;;13.98;8.70;;;;;;;13.78;55.98;98827.23;1743897;81;21727;-69
2021/04/20 05:52:51;;;;;;;9.93;8.28;;;;;;;14.10;54.69;98826.89;1744091;81;21170;-70
2021/04/20 05:55:19;;;;;;;13.53;9.13;;;;;;;14.22;53.47;98829.87;1744759;82;21169;-70
2021/04/20 05:57:49;;;;;;;12.68;9.10;;;;;;;14.14;53.07;98821.02;1746794;81;21298;-70
2021/04/20 06:00:18;;;;;;;12.60;9.08;;;;;;;14.03;53.17;98831.32;1744967;81;21337;-71
2021/04/20 06:02:47;;;;;;;10.60;8.73;;;;;;;13.95;53.42;98825.15;1699087;82;21200;-70
2021/04/20 06:05:19;;;;;;;10.23;8.38;;;;;;;13.92;53.43;98822.05;1743823;81;21587;-70
2021/04/20 06:07:49;;;;;;;9.85;8.45;;;;;;;13.89;53.47;98818.42;1747047;81;21189;-69
2021/04/20 06:10:17;;;;;;;10.13;9.00;;;;;;;13.88;53.60;98815.47;1742113;81;21139;-69
2021/04/20 06:12:47;;;;;;;11.93;9.18;;;;;;;14.02;53.75;98821.72;1740095;81;21144;-69
2021/04/20 06:15:23;;;;;;;13.10;9.20;;;;;;;14.12;53.57;98813.73;1745153;81;21137;-69
2021/04/20 06:17:52;;;;;;;11.43;8.63;;;;;;;14.21;52.94;98814.92;1722402;82;21164;-69
2021/04/20 06:20:23;;;;;;;14.58;9.30;;;;;;;14.30;52.91;98809.77;1747068;82;21161;-70
2021/04/20 06:22:55;;;;;;;11.05;8.53;;;;;;;14.43;52.56;98813.04;1686530;81;21301;-68
2021/04/20 06:25:23;;;;;;;10.63;9.05;;;;;;;14.86;52.14;98802.28;1743792;81;21197;-70
2021/04/20 06:27:52;;;;;;;9.60;8.50;;;;;;;15.52;50.95;98795.03;1700222;82;21164;-70
2021/04/20 06:30:21;;;;;;;15.18;8.63;;;;;;;16.07;49.04;98796.28;1744032;81;21168;-69
2021/04/20 06:32:51;;;;;;;11.53;7.92;;;;;;;16.42;47.79;98796.03;1742900;81;21173;-70
2021/04/20 06:35:21;;;;;;;12.18;8.45;;;;;;;16.87;46.87;98796.16;1733277;81;21171;-71
2021/04/20 06:37:51;;;;;;;8.58;7.62;;;;;;;17.45;45.68;98793.98;1714410;81;21184;-70
2021/04/20 06:40:37;;;;;;;14.53;8.55;;;;;;;17.85;43.88;98792.42;1744205;81;21624;-70
2021/04/20 06:43:12;;;;;;;8.95;8.10;;;;;;;17.99;43.52;98799.31;1748170;82;21236;-70
2021/04/20 06:46:04;;;;;;;10.18;8.28;;;;;;;18.24;43.08;98796.63;1720559;81;21713;-69
2021/04/20 06:48:51;;;;;;;9.18;7.40;;;;;;;18.55;42.31;98791.39;1739208;81;21153;-70
2021/04/20 06:51:29;;;;;;;8.73;6.97;;;;;;;18.68;41.57;98791.25;1747352;81;21275;-71
2021/04/20 06:54:18;;;;;;;10.75;7.00;;;;;;;18.52;41.22;98795.88;1740341;81;21587;-71
2021/04/20 06:57:03;;;;;;;7.90;6.97;;;;;;;18.39;41.46;98790.94;1739157;81;21155;-71
2021/04/20 07:00:17;;;;;;;8.90;6.67;;;;;;;18.30;41.71;98794.93;1716135;82;21172;-70
2021/04/20 07:03:07;;;;;;;6.45;5.83;;;;;;;18.24;41.60;98789.13;1745346;81;21626;-71
2021/04/20 07:05:52;;;;;;;7.20;6.45;;;;;;;18.20;41.36;98778.05;1737046;81;21309;-70
2021/04/20 07:08:44;;;;;;;8.08;6.72;;;;;;;18.08;41.29;98775.77;1739425;81;21341;-71
2021/04/20 07:11:14;;;;;;;7.15;5.70;;;;;;;17.93;41.88;98780.10;1720837;82;21168;-70
2021/04/20 07:13:45;;;;;;;6.85;5.20;;;;;;;17.89;41.75;98790.13;1746711;82;21298;-69
2021/04/20 07:16:37;;;;;;;5.80;5.22;;;;;;;17.68;41.51;98783.26;1739683;81;21161;-71
2021/04/20 07:19:49;;;;;;;5.70;5.20;;;;;;;17.82;41.45;98778.10;1744434;81;21652;-69
2021/04/20 07:22:51;;;;;;;5.87;5.28;;;;;;;17.94;41.35;98779.08;1716071;82;21244;-69
2021/04/20 07:25:51;;;;;;;5.65;4.97;;;;;;;17.85;41.02;98779.05;1696258;81;21310;-68
2021/04/20 07:29:07;;;;;;;5.45;5.00;;;;;;;17.99;41.37;98776.58;1720314;81;21200;-70
2021/04/20 07:31:53;;;;;;;4.65;4.00;;;;;;;18.27;41.15;98784.66;1671995;83;21682;-70
2021/04/20 07:35:01;;;;;;;4.87;4.42;;;;;;;18.21;40.39;98776.98;1740879;81;21239;-70
2021/04/20 07:38:06;;;;;;;5.22;4.55;;;;;;;17.96;40.89;98779.68;1742930;81;21181;-70
2021/04/20 07:41:21;;;;;;;6.47;4.55;;;;;;;17.71;41.21;98772.11;1746931;82;21129;-70
2021/04/20 07:44:29;;;;;;;5.33;4.87;;;;;;;17.70;41.45;98771.83;1743262;81;21144;-69
2021/04/20 07:46:59;;;;;;;5.95;5.03;;;;;;;17.67;41.34;98765.05;1707975;82;21605;-70
2021/04/20 07:50:12;;;;;;;6.30;5.15;;;;;;;17.54;41.74;98761.13;1746805;81;21176;-70
2021/04/20 07:53:00;;;;;;;4.97;4.47;;;;;;;17.54;41.83;98761.13;1697057;84;21327;-72
2021/04/20 07:55:58;;;;;;;4.40;4.00;;;;;;;17.62;41.74;98763.55;1722352;83;21313;-71
2021/04/20 07:58:29;;;;;;;4.85;4.28;;;;;;;17.86;41.38;98759.27;1743272;81;21326;-70
2021/04/20 08:01:01;;;;;;;5.42;4.50;;;;;;;18.28;40.78;98755.53;1742811;81;21172;-70
2021/04/20 08:03:45;;;;;;;7.10;4.62;;;;;;;18.66;39.86;98755.05;1748069;81;21180;-70
2021/04/20 08:06:17;;;;;;;5.03;4.53;;;;;;;18.64;39.14;98744.55;1740977;81;21603;-71
2021/04/20 08:08:51;;;;;;;4.67;4.28;;;;;;;18.64;39.14;98744.55;1679630;84;21170;-70
2021/04/20 08:11:32;;;;;;;5.62;4.20;;;;;;;18.17;39.82;98741.02;1706999;84;21354;-69
2021/04/20 08:14:29;;;;;;;5.35;4.33;;;;;;;17.55;40.66;98741.39;1726777;83;21334;-70
2021/04/20 08:17:22;;;;;;;5.20;4.50;;;;;;;17.06;41.56;98743.20;1706607;84;21600;-70
2021/04/20 08:20:10;;;;;;;;;;;;;;;16.51;42.80;98746.75;1714488;83;21611;-70
2021/04/20 08:22:38;;;;;;;4.45;4.05;;;;;;;16.07;43.78;98738.94;1744034;81;20135;-71
2021/04/20 08:25:47;;;;;;;5.20;4.62;;;;;;;15.66;44.53;98736.75;1716534;82;21620;-70
2021/04/20 08:28:38;;;;;;;4.03;3.72;;;;;;;15.31;45.25;98743.55;1689181;84;21372;-70
2021/04/20 08:31:13;;;;;;;4.33;3.15;;;;;;;14.90;45.34;98744.44;1699135;83;21612;-71
2021/04/20 08:33:45;;;;;;;3.95;3.60;;;;;;;14.58;45.80;98741.95;1746661;82;21179;-69
2021/04/20 08:36:37;;;;;;;5.70;3.37;;;;;;;14.28;46.67;98742.16;1743083;81;21585;-70
2021/04/20 08:39:23;;;;;;;3.75;3.45;;;;;;;14.00;47.59;98739.50;1722601;82;21206;-70
2021/04/20 08:42:14;;;;;;;4.53;4.12;;;;;;;13.68;48.33;98744.88;1746511;82;21153;-70
2021/04/20 08:44:57;;;;;;;6.37;3.87;;;;;;;13.34;49.06;98739.75;1743215;81;21592;-71
2021/04/20 08:47:30;;;;;;;;;;;;;;;13.12;50.51;98730.91;1704594;82;21616;-71
2021/04/20 08:50:03;;;;;;;6.72;5.03;;;;;;;12.93;51.34;98731.00;1747194;81;20433;-70
2021/04/20 08:52:52;;;;;;;7.85;4.92;;;;;;;12.78;52.10;98725.20;1739715;81;21175;-69
2021/04/20 08:55:32;;;;;;;8.88;5.37;;;;;;;12.70;52.85;98733.76;1741186;81;21167;-70
2021/04/20 08:58:39;;;;;;;5.90;4.97;;;;;;;12.62;53.26;98740.84;1692940;84;21188;-70
2021/04/20 09:01:44;;;;;;;5.33;4.83;;;;;;;12.66;53.66;98733.81;1717824;81;21176;-69
2021/04/20 09:05:09;;;;;;;5.40;4.50;;;;;;;12.70;53.83;98737.26;1681803;84;21199;-70
2021/04/20 09:08:11;;;;;;;5.33;4.03;;;;;;;12.76;53.90;98731.72;1707300;84;21180;-69
2021/04/20 09:11:06;;;;;;;4.90;3.90;;;;;;;12.95;53.86;98721.83;1706073;84;21188;-69
2021/04/20 09:13:46;;;;;;;5.42;4.50;;;;;;;13.23;52.81;98727.75;1706170;84;21643;-70
2021/04/20 09:16:20;;;;;;;4.25;3.85;;;;;;;13.53;51.73;98722.36;1706433;84;21636;-69
2021/04/20 09:18:48;;;;;;;4.45;4.05;;;;;;;13.85;51.05;98722.31;1678516;84;21180;-68
2021/04/20 09:21:47;;;;;;;3.72;3.40;;;;;;;14.24;49.99;98725.47;1715044;83;21214;-70
2021/04/20 09:24:20;;;;;;;5.70;3.80;;;;;;;14.75;48.32;98706.00;1740918;81;21168;-70
2021/04/20 09:27:11;;;;;;;4.95;3.70;;;;;;;15.50;46.83;98707.83;1742201;81;21170;-70
2021/04/20 09:29:57;;;;;;;3.87;3.58;;;;;;;16.13;45.20;98709.30;1740250;81;21168;-70
2021/04/20 09:32:29;;;;;;;3.45;3.15;;;;;;;16.66;43.72;98711.81;1741040;81;21594;-71
2021/04/20 09:34:57;;;;;;;5.55;4.17;;;;;;;16.96;42.64;98704.11;1697004;84;21346;-70
2021/04/20 09:37:26;;;;;;;4.67;3.98;;;;;;;17.14;42.48;98709.27;1723330;83;21329;-72
2021/04/20 09:39:54;;;;;;;4.50;3.87;;;;;;;17.14;42.03;98707.41;1703552;82;21171;-70
2021/04/20 09:42:23;;;;;;;5.25;3.80;;;;;;;17.13;41.85;98708.44;1693684;84;21620;-69
2021/04/20 09:45:26;;;;;;;5.67;3.85;;;;;;;17.15;41.97;98703.72;1718300;82;21189;-71
2021/04/20 09:48:17;;;;;;;4.00;3.70;;;;;;;17.12;41.58;98703.33;1740923;81;21149;-70
2021/04/20 09:51:07;;;;;;;4.33;3.92;;;;;;;17.03;42.09;98693.41;1745296;81;21724;-70
2021/04/20 09:54:17;;;;;;;3.75;3.45;;;;;;;16.92;42.25;98696.22;1695958;84;21192;-70
2021/04/20 09:56:50;;;;;;;6.87;4.10;;;;;;;16.85;41.89;98676.74;1688001;83;21208;-70
2021/04/20 09:59:48;;;;;;;4.25;3.85;;;;;;;16.88;42.00;98681.14;1709949;83;21638;-69
2021/04/20 10:02:40;;;;;;;5.55;4.22;;;;;;;17.04;41.84;98675.84;1732629;81;21178;-70
2021/04/20 10:06:06;;;;;;;8.55;4.10;;;;;;;17.42;40.75;98666.95;1696853;84;21195;-70
2021/04/20 10:09:10;;;;;;;4.53;4.10;;;;;;;17.89;40.18;98672.46;1748144;82;21604;-70
2021/04/20 10:12:31;;;;;;;4.20;3.85;;;;;;;18.12;39.42;98659.78;1741486;81;21131;-70
2021/04/20 10:15:28;;;;;;;4.40;4.00;;;;;;;18.03;39.63;98665.43;1744725;81;21148;-70
2021/04/20 10:18:03;;;;;;;4.37;4.00;;;;;;;17.81;39.46;98661.50;1684147;82;21143;-71
2021/04/20 10:20:42;;;;;;;4.30;3.90;;;;;;;17.43;39.91;98659.73;1692290;84;21326;-70
2021/04/20 10:23:37;;;;;;;4.50;4.10;;;;;;;17.06;40.80;98663.08;1722755;83;21286;-71
2021/04/20 10:26:32;;;;;;;4.60;4.08;;;;;;;16.67;41.53;98660.08;1721379;82;21307;-69
2021/04/20 10:29:28;;;;;;;7.03;4.40;;;;;;;16.35;42.13;98665.33;1742980;81;21584;-69
2021/04/20 10:32:10;;;;;;;6.90;4.25;;;;;;;16.02;42.23;98660.08;1745848;81;21242;-69
2021/04/20 10:34:45;;;;;;;5.67;4.30;;;;;;;15.76;43.18;98668.92;1692787;84;21192;-70
2021/04/20 10:37:13;;;;;;;5.12;4.62;;;;;;;15.58;43.55;98659.69;1709843;83;21326;-70
2021/04/20 10:39:46;;;;;;;6.17;4.55;;;;;;;15.47;44.39;98661.11;1683947;84;21663;-70
2021/04/20 10:42:15;;;;;;;5.58;4.40;;;;;;;15.45;44.45;98671.16;1707612;82;21331;-69
2021/04/20 10:44:43;;;;;;;4.12;3.75;;;;;;;15.40;43.53;98667.47;1713032;82;21168;-70
2021/04/20 10:47:11;;;;;;;4.20;3.80;;;;;;;15.32;44.08;98662.64;1661077;82;21216;-70
2021/04/20 10:49:40;;;;;;;4.60;4.20;;;;;;;15.31;43.43;98662.84;1743446;81;21708;-71
2021/04/20 10:52:09;;;;;;;4.92;3.95;;;;;;;15.36;43.58;98665.72;1741031;81;21167;-71
2021/04/20 10:54:39;;;;;;;4.00;3.70;;;;;;;15.38;43.78;98661.52;1697494;84;21173;-69
2021/04/20 10:57:07;;;;;;;5.90;3.92;;;;;;;15.39;42.92;98663.14;1682753;84;21175;-70
2021/04/20 10:59:38;;;;;;;4.85;3.77;;;;;;;15.37;43.07;98650.03;1720196;81;21646;-70
2021/04/20 11:02:13;;;;;;;6.37;4.45;;;;;;;15.23;43.77;98657.72;1742027;81;21599;-70
2021/04/20 11:04:43;;;;;;;4.50;4.10;;;;;;;15.01;44.35;98660.53;1710811;82;21126;-70
2021/04/20 11:07:35;;;;;;;5.65;4.08;;;;;;;14.80;44.84;98657.52;1720986;82;21727;-70
2021/04/20 11:10:08;;;;;;;4.33;3.92;;;;;;;14.64;44.85;98653.88;1713698;82;21173;-70
2021/04/20 11:12:47;;;;;;;7.22;4.05;;;;;;;14.51;45.24;98655.45;1746352;82;21302;-69
2021/04/20 11:15:19;;;;;;;4.80;4.33;;;;;;;14.41;45.16;98655.50;1738694;81;21225;-70
2021/04/20 11:17:58;;;;;;;4.28;3.90;;;;;;;14.39;45.23;98649.55;1708406;82;21555;-70
2021/04/20 11:20:43;;;;;;;5.78;4.37;;;;;;;14.40;45.11;98645.37;1745495;81;21163;-69
2021/04/20 11:23:21;;;;;;;4.37;3.98;;;;;;;14.42;45.00;98638.02;1743606;82;21136;-69
2021/04/20 11:26:04;;;;;;;4.95;4.12;;;;;;;14.48;44.87;98641.20;1743410;81;21295;-71
2021/04/20 11:28:43;;;;;;;4.58;3.85;;;;;;;14.46;44.78;98633.94;1747048;82;21164;-71
2021/04/20 11:31:27;;;;;;;7.03;3.83;;;;;;;14.37;45.10;98633.27;1748525;81;21164;-70
2021/04/20 11:34:22;;;;;;;6.37;4.03;;;;;;;14.33;45.55;98636.54;1747804;82;21184;-70
2021/04/20 11:37:02;;;;;;;4.62;3.90;;;;;;;14.27;45.46;98632.83;1746841;81;21172;-70
2021/04/20 11:39:40;;;;;;;5.17;3.80;;;;;;;14.20;45.28;98637.81;1667940;84;21624;-69
2021/04/20 11:42:15;;;;;;;5.00;4.00;;;;;;;14.15;45.48;98631.73;1715307;82;21184;-70
2021/04/20 11:44:50;;;;;;;4.10;3.70;;;;;;;14.08;45.72;98631.69;1746520;81;21167;-70
2021/04/20 11:47:19;;;;;;;5.30;3.85;;;;;;;14.07;46.29;98629.25;1695808;84;21197;-70
2021/04/20 11:49:50;;;;;;;4.50;4.05;;;;;;;14.09;46.45;98630.69;1745074;82;21184;-70
2021/04/20 11:52:24;;;;;;;4.37;3.80;;;;;;;14.20;47.10;98628.50;1747492;81;21125;-70
2021/04/20 11:55:13;;;;;;;5.10;4.03;;;;;;;14.28;46.75;98624.34;1745726;81;21155;-70
2021/04/20 11:57:41;;;;;;;5.37;3.87;;;;;;;14.40;46.72;98619.27;1744703;81;21174;-70
2021/04/20 12:00:11;;;;;;;4.35;3.85;;;;;;;14.47;46.36;98604.97;1691664;84;21180;-69
2021/04/20 12:02:39;;;;;;;4.37;3.98;;;;;;;14.52;46.11;98611.85;1702955;82;21188;-70
2021/04/20 12:05:10;;;;;;;5.85;4.00;;;;;;;14.52;45.67;98614.51;1701250;84;21199;-71
2021/04/20 12:07:39;;;;;;;4.15;3.75;;;;;;;14.53;45.43;98610.00;1736433;81;21147;-71
2021/04/20 12:10:12;;;;;;;6.15;3.95;;;;;;;14.59;45.35;98609.74;1694100;84;21239;-71
2021/04/20 12:12:40;;;;;;;;;;;;;;;14.59;45.14;98611.08;1708821;83;21175;-70